sensor_id;sensor_type;location;lat;lon;timestamp;pressure;altitude;pressure_sealevel;temperature;humidity
47985;BME280;33753;52.912;-7.342;2023-01-15T00:00:35;98528.03;;;0.87;100.00
47985;BME280;33753;52.912;-7.342;2023-01-15T00:03:03;98540.03;;;0.91;100.00
47985;BME280;33753;52.912;-7.342;2023-01-15T00:05:34;98525.59;;;0.94;100.00
47985;BME280;33753;52.912;-7.342;2023-01-15T00:08:02;98517.13;;;0.98;100.00
47985;BME280;33753;52.912;-7.342;2023-01-15T00:10:31;98514.13;;;1.01;100.00
47985;BME280;33753;52.912;-7.342;2023-01-15T00:13:01;98510.50;;;1.02;100.00
47985;BME280;33753;52.912;-7.342;2023-01-15T00:15:29;98504.50;;;1.00;100.00
47985;BME280;33753;52.912;-7.342;2023-01-15T00:18:01;98490.88;;;1.03;100.00
47985;BME280;33753;52.912;-7.342;2023-01-15T00:20:33;98495.88;;;1.07;100.00
47985;BME280;33753;52.912;-7.342;2023-01-15T00:23:04;98482.41;;;1.08;100.00
47985;BME280;33753;52.912;-7.342;2023-01-15T00:25:54;98480.94;;;1.14;100.00
47985;BME280;33753;52.912;-7.342;2023-01-15T00:28:48;98502.06;;;1.15;100.00
47985;BME280;33753;52.912;-7.342;2023-01-15T00:31:16;98504.25;;;1.20;100.00
47985;BME280;33753;52.912;-7.342;2023-01-15T00:33:47;98501.28;;;1.23;100.00
47985;BME280;33753;52.912;-7.342;2023-01-15T00:36:16;98502.31;;;1.30;100.00
47985;BME280;33753;52.912;-7.342;2023-01-15T00:38:44;98501.00;;;1.34;100.00
47985;BME280;33753;52.912;-7.342;2023-01-15T00:41:14;98512.84;;;1.40;100.00
47985;BME280;33753;52.912;-7.342;2023-01-15T00:43:43;98505.50;;;1.42;100.00
47985;BME280;33753;52.912;-7.342;2023-01-15T00:46:13;98512.84;;;1.48;100.00
47985;BME280;33753;52.912;-7.342;2023-01-15T00:48:46;98496.41;;;1.53;100.00
47985;BME280;33753;52.912;-7.342;2023-01-15T00:51:14;98485.56;;;1.54;100.00
47985;BME280;33753;52.912;-7.342;2023-01-15T00:53:46;98483.56;;;1.57;100.00
47985;BME280;33753;52.912;-7.342;2023-01-15T00:56:15;98489.56;;;1.59;100.00
47985;BME280;33753;52.912;-7.342;2023-01-15T00:58:45;98483.75;;;1.63;100.00
47985;BME280;33753;52.912;-7.342;2023-01-15T01:01:15;98474.63;;;1.66;100.00
47985;BME280;33753;52.912;-7.342;2023-01-15T01:03:44;98472.59;;;1.68;100.00
47985;BME280;33753;52.912;-7.342;2023-01-15T01:06:14;98470.59;;;1.70;100.00
47985;BME280;33753;52.912;-7.342;2023-01-15T01:08:43;98459.78;;;1.71;100.00
47985;BME280;33753;52.912;-7.342;2023-01-15T01:11:12;98455.63;;;1.77;100.00
47985;BME280;33753;52.912;-7.342;2023-01-15T01:13:41;98472.28;;;1.79;100.00
47985;BME280;33753;52.912;-7.342;2023-01-15T01:16:25;98470.97;;;1.83;100.00
47985;BME280;33753;52.912;-7.342;2023-01-15T01:18:56;98461.66;;;1.87;100.00
47985;BME280;33753;52.912;-7.342;2023-01-15T01:21:25;98471.97;;;1.90;100.00
47985;BME280;33753;52.912;-7.342;2023-01-15T01:23:53;98473.31;;;1.95;100.00
47985;BME280;33753;52.912;-7.342;2023-01-15T01:26:22;98466.66;;;1.90;100.00
47985;BME280;33753;52.912;-7.342;2023-01-15T01:28:50;98457.97;;;1.88;100.00
47985;BME280;33753;52.912;-7.342;2023-01-15T01:31:20;98464.16;;;1.89;100.00
47985;BME280;33753;52.912;-7.342;2023-01-15T01:33:50;98462.63;;;1.78;100.00
47985;BME280;33753;52.912;-7.342;2023-01-15T01:36:18;98460.13;;;1.77;100.00
47985;BME280;33753;52.912;-7.342;2023-01-15T01:38:47;98453.44;;;1.72;100.00
47985;BME280;33753;52.912;-7.342;2023-01-15T01:41:16;98437.97;;;1.68;100.00
47985;BME280;33753;52.912;-7.342;2023-01-15T01:43:53;98436.28;;;1.67;100.00
47985;BME280;33753;52.912;-7.342;2023-01-15T01:46:23;98434.31;;;1.69;100.00
47985;BME280;33753;52.912;-7.342;2023-01-15T01:48:53;98432.47;;;1.69;100.00
47985;BME280;33753;52.912;-7.342;2023-01-15T01:51:23;98428.28;;;1.67;100.00
47985;BME280;33753;52.912;-7.342;2023-01-15T01:53:53;98434.31;;;1.69;100.00
47985;BME280;33753;52.912;-7.342;2023-01-15T01:56:21;98418.47;;;1.67;100.00
47985;BME280;33753;52.912;-7.342;2023-01-15T01:58:50;98429.16;;;1.67;100.00
47985;BME280;33753;52.912;-7.342;2023-01-15T02:01:20;98432.09;;;1.64;100.00
47985;BME280;33753;52.912;-7.342;2023-01-15T02:03:50;98431.97;;;1.66;100.00
47985;BME280;33753;52.912;-7.342;2023-01-15T02:06:22;98430.94;;;1.67;100.00
47985;BME280;33753;52.912;-7.342;2023-01-15T02:08:51;98433.63;;;1.67;100.00
47985;BME280;33753;52.912;-7.342;2023-01-15T02:11:20;98424.31;;;1.71;100.00
47985;BME280;33753;52.912;-7.342;2023-01-15T02:13:52;98424.81;;;1.75;100.00
47985;BME280;33753;52.912;-7.342;2023-01-15T02:16:22;98425.63;;;1.75;100.00
47985;BME280;33753;52.912;-7.342;2023-01-15T02:18:54;98425.81;;;1.82;100.00
47985;BME280;33753;52.912;-7.342;2023-01-15T02:21:30;98430.00;;;1.84;100.00
47985;BME280;33753;52.912;-7.342;2023-01-15T02:24:11;98436.97;;;1.85;100.00
47985;BME280;33753;52.912;-7.342;2023-01-15T02:26:58;98433.97;;;1.88;100.00
47985;BME280;33753;52.912;-7.342;2023-01-15T02:29:32;98445.31;;;1.90;100.00
47985;BME280;33753;52.912;-7.342;2023-01-15T02:32:03;98440.63;;;1.93;100.00
47985;BME280;33753;52.912;-7.342;2023-01-15T02:34:35;98450.66;;;1.99;100.00
47985;BME280;33753;52.912;-7.342;2023-01-15T02:37:07;98447.31;;;2.05;100.00
47985;BME280;33753;52.912;-7.342;2023-01-15T02:39:39;98436.47;;;2.06;100.00
47985;BME280;33753;52.912;-7.342;2023-01-15T02:42:10;98439.31;;;2.13;100.00
47985;BME280;33753;52.912;-7.342;2023-01-15T02:44:45;98446.63;;;2.11;100.00
47985;BME280;33753;52.912;-7.342;2023-01-15T02:47:15;98439.31;;;2.13;100.00
47985;BME280;33753;52.912;-7.342;2023-01-15T02:49:43;98433.66;;;2.08;100.00
47985;BME280;33753;52.912;-7.342;2023-01-15T02:52:18;98434.97;;;2.04;100.00
47985;BME280;33753;52.912;-7.342;2023-01-15T02:54:50;98432.47;;;2.02;100.00
47985;BME280;33753;52.912;-7.342;2023-01-15T02:57:22;98431.47;;;1.95;100.00
47985;BME280;33753;52.912;-7.342;2023-01-15T02:59:54;98426.16;;;1.95;100.00
47985;BME280;33753;52.912;-7.342;2023-01-15T03:02:26;98418.66;;;1.90;100.00
47985;BME280;33753;52.912;-7.342;2023-01-15T03:04:56;98422.66;;;1.86;100.00
47985;BME280;33753;52.912;-7.342;2023-01-15T03:07:29;98406.66;;;1.86;100.00
47985;BME280;33753;52.912;-7.342;2023-01-15T03:09:59;98415.66;;;1.85;100.00
47985;BME280;33753;52.912;-7.342;2023-01-15T03:12:33;98407.16;;;1.82;100.00
47985;BME280;33753;52.912;-7.342;2023-01-15T03:15:26;98409.31;;;1.78;100.00
47985;BME280;33753;52.912;-7.342;2023-01-15T03:18:16;98420.31;;;1.75;100.00
47985;BME280;33753;52.912;-7.342;2023-01-15T03:20:47;98418.63;;;1.74;100.00
47985;BME280;33753;52.912;-7.342;2023-01-15T03:23:17;98423.78;;;1.76;100.00
47985;BME280;33753;52.912;-7.342;2023-01-15T03:25:48;98422.63;;;1.70;100.00
47985;BME280;33753;52.912;-7.342;2023-01-15T03:28:20;98420.97;;;1.69;100.00
47985;BME280;33753;52.912;-7.342;2023-01-15T03:30:51;98420.97;;;1.69;100.00
47985;BME280;33753;52.912;-7.342;2023-01-15T03:33:19;98424.97;;;1.65;100.00
47985;BME280;33753;52.912;-7.342;2023-01-15T03:35:50;98436.78;;;1.62;100.00
47985;BME280;33753;52.912;-7.342;2023-01-15T03:38:33;98421.94;;;1.60;100.00
47985;BME280;33753;52.912;-7.342;2023-01-15T03:41:06;98429.78;;;1.61;100.00
47985;BME280;33753;52.912;-7.342;2023-01-15T03:43:40;98427.28;;;1.60;100.00
47985;BME280;33753;52.912;-7.342;2023-01-15T03:48:58;98440.44;;;1.61;100.00
47985;BME280;33753;52.912;-7.342;2023-01-15T03:51:31;98444.94;;;1.61;100.00
47985;BME280;33753;52.912;-7.342;2023-01-15T03:54:02;98435.09;;;1.61;100.00
47985;BME280;33753;52.912;-7.342;2023-01-15T03:56:35;98425.31;;;1.62;100.00
47985;BME280;33753;52.912;-7.342;2023-01-15T03:59:11;98427.81;;;1.63;100.00
47985;BME280;33753;52.912;-7.342;2023-01-15T04:01:52;98437.59;;;1.63;100.00
47985;BME280;33753;52.912;-7.342;2023-01-15T04:04:22;98423.81;;;1.67;100.00
47985;BME280;33753;52.912;-7.342;2023-01-15T04:06:51;98428.63;;;1.72;100.00
47985;BME280;33753;52.912;-7.342;2023-01-15T04:09:20;98421.81;;;1.78;100.00
47985;BME280;33753;52.912;-7.342;2023-01-15T04:11:52;98419.31;;;1.76;100.00
47985;BME280;33753;52.912;-7.342;2023-01-15T04:14:21;98418.00;;;1.80;100.00
47985;BME280;33753;52.912;-7.342;2023-01-15T04:16:53;98412.66;;;1.80;100.00
47985;BME280;33753;52.912;-7.342;2023-01-15T04:19:23;98415.97;;;1.82;100.00
47985;BME280;33753;52.912;-7.342;2023-01-15T04:22:03;98420.31;;;1.75;100.00
47985;BME280;33753;52.912;-7.342;2023-01-15T04:24:32;98423.63;;;1.77;100.00
47985;BME280;33753;52.912;-7.342;2023-01-15T04:27:00;98426.16;;;1.79;100.00
47985;BME280;33753;52.912;-7.342;2023-01-15T04:29:30;98421.97;;;1.76;100.00
47985;BME280;33753;52.912;-7.342;2023-01-15T04:31:58;98426.28;;;1.77;100.00
47985;BME280;33753;52.912;-7.342;2023-01-15T04:34:27;98426.97;;;1.79;100.00
47985;BME280;33753;52.912;-7.342;2023-01-15T04:36:55;98425.31;;;1.78;100.00
47985;BME280;33753;52.912;-7.342;2023-01-15T04:39:24;98431.63;;;1.77;100.00
47985;BME280;33753;52.912;-7.342;2023-01-15T04:41:52;98432.66;;;1.76;100.00
47985;BME280;33753;52.912;-7.342;2023-01-15T04:44:39;98434.63;;;1.74;100.00
47985;BME280;33753;52.912;-7.342;2023-01-15T04:47:08;98441.28;;;1.70;100.00
47985;BME280;33753;52.912;-7.342;2023-01-15T04:49:36;98431.81;;;1.67;100.00
47985;BME280;33753;52.912;-7.342;2023-01-15T04:52:04;98432.28;;;1.63;100.00
47985;BME280;33753;52.912;-7.342;2023-01-15T04:54:32;98426.28;;;1.61;100.00
47985;BME280;33753;52.912;-7.342;2023-01-15T04:57:00;98433.47;;;1.60;100.00
47985;BME280;33753;52.912;-7.342;2023-01-15T04:59:29;98441.09;;;1.55;100.00
47985;BME280;33753;52.912;-7.342;2023-01-15T05:01:58;98434.63;;;1.58;100.00
47985;BME280;33753;52.912;-7.342;2023-01-15T05:04:32;98432.28;;;1.54;100.00
47985;BME280;33753;52.912;-7.342;2023-01-15T05:07:00;98434.28;;;1.52;100.00
47985;BME280;33753;52.912;-7.342;2023-01-15T05:09:29;98428.94;;;1.52;100.00
47985;BME280;33753;52.912;-7.342;2023-01-15T05:11:57;98434.09;;;1.54;100.00
47985;BME280;33753;52.912;-7.342;2023-01-15T05:14:25;98420.94;;;1.52;100.00
47985;BME280;33753;52.912;-7.342;2023-01-15T05:16:54;98418.13;;;1.54;100.00
47985;BME280;33753;52.912;-7.342;2023-01-15T05:19:23;98426.09;;;1.54;100.00
47985;BME280;33753;52.912;-7.342;2023-01-15T05:21:52;98417.97;;;1.47;100.00
47985;BME280;33753;52.912;-7.342;2023-01-15T05:24:20;98426.59;;;1.41;100.00
47985;BME280;33753;52.912;-7.342;2023-01-15T05:26:48;98434.41;;;1.43;100.00
47985;BME280;33753;52.912;-7.342;2023-01-15T05:29:16;98441.22;;;1.37;100.00
47985;BME280;33753;52.912;-7.342;2023-01-15T05:31:45;98444.22;;;1.34;100.00
47985;BME280;33753;52.912;-7.342;2023-01-15T05:34:13;98446.22;;;1.32;100.00
47985;BME280;33753;52.912;-7.342;2023-01-15T05:36:43;98442.88;;;1.30;100.00
47985;BME280;33753;52.912;-7.342;2023-01-15T05:39:12;98445.38;;;1.23;100.00
47985;BME280;33753;52.912;-7.342;2023-01-15T05:41:40;98438.00;;;1.17;100.00
47985;BME280;33753;52.912;-7.342;2023-01-15T05:44:20;98425.19;;;1.12;100.00
47985;BME280;33753;52.912;-7.342;2023-01-15T05:46:49;98419.34;;;1.09;100.00
47985;BME280;33753;52.912;-7.342;2023-01-15T05:49:18;98422.16;;;1.07;100.00
47985;BME280;33753;52.912;-7.342;2023-01-15T05:51:48;98426.97;;;1.03;100.00
47985;BME280;33753;52.912;-7.342;2023-01-15T05:54:17;98428.13;;;1.01;100.00
47985;BME280;33753;52.912;-7.342;2023-01-15T05:56:46;98427.31;;;1.00;100.00
47985;BME280;33753;52.912;-7.342;2023-01-15T05:59:15;98431.78;;;1.00;100.00
47985;BME280;33753;52.912;-7.342;2023-01-15T06:01:43;98436.81;;;1.03;100.00
47985;BME280;33753;52.912;-7.342;2023-01-15T06:04:12;98433.47;;;1.01;100.00
47985;BME280;33753;52.912;-7.342;2023-01-15T06:06:41;98443.59;;;0.97;100.00
47985;BME280;33753;52.912;-7.342;2023-01-15T06:09:10;98445.56;;;0.95;100.00
47985;BME280;33753;52.912;-7.342;2023-01-15T06:11:44;98447.41;;;0.95;100.00
47985;BME280;33753;52.912;-7.342;2023-01-15T06:14:13;98448.41;;;0.94;100.00
47985;BME280;33753;52.912;-7.342;2023-01-15T06:16:42;98448.41;;;0.94;100.00
47985;BME280;33753;52.912;-7.342;2023-01-15T06:19:10;98443.06;;;0.94;100.00
47985;BME280;33753;52.912;-7.342;2023-01-15T06:21:39;98451.22;;;0.92;100.00
47985;BME280;33753;52.912;-7.342;2023-01-15T06:24:08;98462.69;;;0.93;100.00
47985;BME280;33753;52.912;-7.342;2023-01-15T06:26:37;98473.34;;;0.93;100.00
47985;BME280;33753;52.912;-7.342;2023-01-15T06:29:06;98485.81;;;0.92;100.00
47985;BME280;33753;52.912;-7.342;2023-01-15T06:31:35;98494.47;;;0.94;100.00
47985;BME280;33753;52.912;-7.342;2023-01-15T06:34:03;98490.66;;;0.97;100.00
47985;BME280;33753;52.912;-7.342;2023-01-15T06:36:31;98494.69;;;1.01;100.00
47985;BME280;33753;52.912;-7.342;2023-01-15T06:39:00;98493.00;;;1.00;100.00
47985;BME280;33753;52.912;-7.342;2023-01-15T06:41:31;98499.19;;;1.00;100.00
47985;BME280;33753;52.912;-7.342;2023-01-15T06:44:17;98498.00;;;0.95;100.00
47985;BME280;33753;52.912;-7.342;2023-01-15T06:47:09;98496.00;;;0.97;100.00
47985;BME280;33753;52.912;-7.342;2023-01-15T06:49:50;98495.00;;;0.98;100.00
47985;BME280;33753;52.912;-7.342;2023-01-15T06:52:19;98503.81;;;0.98;100.00
47985;BME280;33753;52.912;-7.342;2023-01-15T06:54:47;98503.81;;;0.98;100.00
47985;BME280;33753;52.912;-7.342;2023-01-15T06:57:16;98511.63;;;1.00;100.00
47985;BME280;33753;52.912;-7.342;2023-01-15T06:59:46;98511.63;;;1.00;100.00
47985;BME280;33753;52.912;-7.342;2023-01-15T07:02:14;98506.31;;;1.00;100.00
47985;BME280;33753;52.912;-7.342;2023-01-15T07:04:44;98507.34;;;0.99;100.00
47985;BME280;33753;52.912;-7.342;2023-01-15T07:07:12;98515.31;;;0.99;100.00
47985;BME280;33753;52.912;-7.342;2023-01-15T07:09:40;98524.28;;;0.98;100.00
47985;BME280;33753;52.912;-7.342;2023-01-15T07:12:09;98532.13;;;0.99;100.00
47985;BME280;33753;52.912;-7.342;2023-01-15T07:14:37;98533.09;;;0.98;100.00
47985;BME280;33753;52.912;-7.342;2023-01-15T07:17:07;98539.13;;;1.00;100.00
47985;BME280;33753;52.912;-7.342;2023-01-15T07:19:36;98545.44;;;0.99;100.00
47985;BME280;33753;52.912;-7.342;2023-01-15T07:22:05;98534.94;;;0.98;100.00
47985;BME280;33753;52.912;-7.342;2023-01-15T07:24:33;98546.41;;;0.98;100.00
47985;BME280;33753;52.912;-7.342;2023-01-15T07:27:02;98545.59;;;0.98;100.00
47985;BME280;33753;52.912;-7.342;2023-01-15T07:29:32;98532.78;;;1.01;100.00
47985;BME280;33753;52.912;-7.342;2023-01-15T07:32:00;98538.59;;;0.97;100.00
47985;BME280;33753;52.912;-7.342;2023-01-15T07:34:30;98534.41;;;0.94;100.00
47985;BME280;33753;52.912;-7.342;2023-01-15T07:36:59;98535.75;;;0.90;100.00
47985;BME280;33753;52.912;-7.342;2023-01-15T07:39:27;98542.53;;;0.84;100.00
47985;BME280;33753;52.912;-7.342;2023-01-15T07:41:57;98545.47;;;0.81;100.00
47985;BME280;33753;52.912;-7.342;2023-01-15T07:44:44;98538.94;;;0.76;100.00
47985;BME280;33753;52.912;-7.342;2023-01-15T07:47:29;98542.47;;;0.76;100.00
47985;BME280;33753;52.912;-7.342;2023-01-15T07:50:17;98539.09;;;0.74;100.00
47985;BME280;33753;52.912;-7.342;2023-01-15T07:52:46;98543.81;;;0.80;100.00
47985;BME280;33753;52.912;-7.342;2023-01-15T07:55:14;98550.78;;;0.81;100.00
47985;BME280;33753;52.912;-7.342;2023-01-15T07:57:43;98553.00;;;0.86;100.00
47985;BME280;33753;52.912;-7.342;2023-01-15T08:00:12;98549.88;;;0.91;100.00
47985;BME280;33753;52.912;-7.342;2023-01-15T08:02:41;98550.09;;;0.97;100.00
47985;BME280;33753;52.912;-7.342;2023-01-15T08:05:11;98547.78;;;1.02;100.00
47985;BME280;33753;52.912;-7.342;2023-01-15T08:07:41;98558.09;;;1.06;100.00
47985;BME280;33753;52.912;-7.342;2023-01-15T08:10:11;98549.94;;;1.07;100.00
47985;BME280;33753;52.912;-7.342;2023-01-15T08:12:39;98556.78;;;1.10;100.00
47985;BME280;33753;52.912;-7.342;2023-01-15T08:15:25;98557.16;;;1.15;100.00
47985;BME280;33753;52.912;-7.342;2023-01-15T08:17:53;98553.03;;;1.20;100.00
47985;BME280;33753;52.912;-7.342;2023-01-15T08:20:23;98550.03;;;1.24;100.00
47985;BME280;33753;52.912;-7.342;2023-01-15T08:22:53;98548.75;;;1.28;100.00
47985;BME280;33753;52.912;-7.342;2023-01-15T08:25:21;98562.56;;;1.31;100.00
47985;BME280;33753;52.912;-7.342;2023-01-15T08:27:50;98563.09;;;1.35;100.00
47985;BME280;33753;52.912;-7.342;2023-01-15T08:30:19;98566.41;;;1.37;100.00
47985;BME280;33753;52.912;-7.342;2023-01-15T08:32:48;98569.06;;;1.37;100.00
47985;BME280;33753;52.912;-7.342;2023-01-15T08:35:17;98564.44;;;1.39;100.00
47985;BME280;33753;52.912;-7.342;2023-01-15T08:37:45;98572.78;;;1.44;100.00
47985;BME280;33753;52.912;-7.342;2023-01-15T08:40:15;98569.13;;;1.45;100.00
47985;BME280;33753;52.912;-7.342;2023-01-15T08:42:43;98570.47;;;1.49;100.00
47985;BME280;33753;52.912;-7.342;2023-01-15T08:45:11;98582.31;;;1.55;100.00
47985;BME280;33753;52.912;-7.342;2023-01-15T08:47:40;98590.00;;;1.58;100.00
47985;BME280;33753;52.912;-7.342;2023-01-15T08:50:09;98590.53;;;1.62;100.00
47985;BME280;33753;52.912;-7.342;2023-01-15T08:52:37;98598.84;;;1.67;100.00
47985;BME280;33753;52.912;-7.342;2023-01-15T08:55:06;98594.03;;;1.70;100.00
47985;BME280;33753;52.912;-7.342;2023-01-15T08:57:36;98600.72;;;1.75;100.00
47985;BME280;33753;52.912;-7.342;2023-01-15T09:00:05;98600.91;;;1.81;100.00
47985;BME280;33753;52.912;-7.342;2023-01-15T09:02:33;98609.25;;;1.86;100.00
47985;BME280;33753;52.912;-7.342;2023-01-15T09:05:01;98620.59;;;1.88;100.00
47985;BME280;33753;52.912;-7.342;2023-01-15T09:07:29;98624.59;;;1.93;100.00
47985;BME280;33753;52.912;-7.342;2023-01-15T09:09:58;98623.97;;;1.99;100.00
47985;BME280;33753;52.912;-7.342;2023-01-15T09:12:26;98627.31;;;2.01;100.00
47985;BME280;33753;52.912;-7.342;2023-01-15T09:14:56;98627.66;;;2.06;100.00
47985;BME280;33753;52.912;-7.342;2023-01-15T09:17:30;98631.69;;;2.10;100.00
47985;BME280;33753;52.912;-7.342;2023-01-15T09:19:58;98628.50;;;2.15;100.00
47985;BME280;33753;52.912;-7.342;2023-01-15T09:22:28;98636.84;;;2.20;100.00
47985;BME280;33753;52.912;-7.342;2023-01-15T09:24:57;98632.19;;;2.22;100.00
47985;BME280;33753;52.912;-7.342;2023-01-15T09:27:30;98642.38;;;2.27;100.00
47985;BME280;33753;52.912;-7.342;2023-01-15T09:30:01;98638.38;;;2.31;100.00
47985;BME280;33753;52.912;-7.342;2023-01-15T09:32:30;98643.06;;;2.37;100.00
47985;BME280;33753;52.912;-7.342;2023-01-15T09:34:58;98639.06;;;2.41;100.00
47985;BME280;33753;52.912;-7.342;2023-01-15T09:37:27;98649.91;;;2.48;100.00
47985;BME280;33753;52.912;-7.342;2023-01-15T09:39:55;98648.94;;;2.49;100.00
47985;BME280;33753;52.912;-7.342;2023-01-15T09:42:30;98653.91;;;2.60;100.00
47985;BME280;33753;52.912;-7.342;2023-01-15T09:45:10;98650.44;;;2.68;100.00
47985;BME280;33753;52.912;-7.342;2023-01-15T09:47:42;98640.78;;;2.75;100.00
47985;BME280;33753;52.912;-7.342;2023-01-15T09:50:17;98648.63;;;2.85;100.00
47985;BME280;33753;52.912;-7.342;2023-01-15T09:52:55;98653.97;;;2.93;100.00
47985;BME280;33753;52.912;-7.342;2023-01-15T09:55:25;98652.94;;;3.02;100.00
47985;BME280;33753;52.912;-7.342;2023-01-15T09:57:55;98656.44;;;3.11;100.00
47985;BME280;33753;52.912;-7.342;2023-01-15T10:00:26;98666.44;;;3.17;100.00
47985;BME280;33753;52.912;-7.342;2023-01-15T10:02:56;98667.47;;;3.24;100.00
47985;BME280;33753;52.912;-7.342;2023-01-15T10:05:27;98665.63;;;3.33;100.00
47985;BME280;33753;52.912;-7.342;2023-01-15T10:07:57;98679.97;;;3.40;100.00
47985;BME280;33753;52.912;-7.342;2023-01-15T10:10:26;98673.75;;;3.48;100.00
47985;BME280;33753;52.912;-7.342;2023-01-15T10:13:01;98682.59;;;3.57;100.00
47985;BME280;33753;52.912;-7.342;2023-01-15T10:15:36;98680.56;;;3.67;100.00
47985;BME280;33753;52.912;-7.342;2023-01-15T10:18:10;98686.75;;;3.76;100.00
47985;BME280;33753;52.912;-7.342;2023-01-15T10:20:46;98690.56;;;3.82;100.00
47985;BME280;33753;52.912;-7.342;2023-01-15T10:23:20;98693.19;;;3.90;100.00
47985;BME280;33753;52.912;-7.342;2023-01-15T10:25:54;98692.34;;;3.97;100.00
47985;BME280;33753;52.912;-7.342;2023-01-15T10:28:25;98698.66;;;4.13;100.00
47985;BME280;33753;52.912;-7.342;2023-01-15T10:30:58;98697.59;;;4.22;100.00
47985;BME280;33753;52.912;-7.342;2023-01-15T10:33:44;98702.41;;;4.27;100.00
47985;BME280;33753;52.912;-7.342;2023-01-15T10:36:18;98704.88;;;4.37;100.00
47985;BME280;33753;52.912;-7.342;2023-01-15T10:38:55;98708.34;;;4.45;100.00
47985;BME280;33753;52.912;-7.342;2023-01-15T10:41:33;98710.84;;;4.47;100.00
47985;BME280;33753;52.912;-7.342;2023-01-15T10:44:07;98710.50;;;4.50;100.00
47985;BME280;33753;52.912;-7.342;2023-01-15T10:46:41;98722.84;;;4.59;100.00
47985;BME280;33753;52.912;-7.342;2023-01-15T10:49:13;98714.59;;;4.69;100.00
47985;BME280;33753;52.912;-7.342;2023-01-15T10:51:43;98717.09;;;4.71;100.00
47985;BME280;33753;52.912;-7.342;2023-01-15T10:54:14;98715.06;;;4.73;100.00
47985;BME280;33753;52.912;-7.342;2023-01-15T10:56:45;98723.16;;;4.64;100.00
47985;BME280;33753;52.912;-7.342;2023-01-15T10:59:15;98717.44;;;4.67;100.00
47985;BME280;33753;52.912;-7.342;2023-01-15T11:01:50;98719.09;;;4.68;100.00
47985;BME280;33753;52.912;-7.342;2023-01-15T11:04:19;98724.13;;;4.72;100.00
47985;BME280;33753;52.912;-7.342;2023-01-15T11:06:48;98721.50;;;4.63;100.00
47985;BME280;33753;52.912;-7.342;2023-01-15T11:09:17;98724.34;;;4.62;100.00
47985;BME280;33753;52.912;-7.342;2023-01-15T11:11:47;98719.00;;;4.62;100.00
47985;BME280;33753;52.912;-7.342;2023-01-15T11:14:33;98715.13;;;4.64;100.00
47985;BME280;33753;52.912;-7.342;2023-01-15T11:17:21;98720.78;;;4.70;100.00
47985;BME280;33753;52.912;-7.342;2023-01-15T11:20:16;98707.91;;;4.65;100.00
47985;BME280;33753;52.912;-7.342;2023-01-15T11:22:48;98701.16;;;4.77;100.00
47985;BME280;33753;52.912;-7.342;2023-01-15T11:25:24;98702.97;;;4.77;100.00
47985;BME280;33753;52.912;-7.342;2023-01-15T11:27:52;98704.59;;;4.86;100.00
47985;BME280;33753;52.912;-7.342;2023-01-15T11:30:25;98699.47;;;4.76;100.00
47985;BME280;33753;52.912;-7.342;2023-01-15T11:32:55;98699.63;;;4.83;100.00
47985;BME280;33753;52.912;-7.342;2023-01-15T11:35:24;98700.91;;;4.87;100.00
47985;BME280;33753;52.912;-7.342;2023-01-15T11:38:05;98694.59;;;4.80;100.00
47985;BME280;33753;52.912;-7.342;2023-01-15T11:40:34;98694.53;;;4.88;100.00
47985;BME280;33753;52.912;-7.342;2023-01-15T11:43:02;98684.34;;;4.83;100.00
47985;BME280;33753;52.912;-7.342;2023-01-15T11:45:56;98682.09;;;4.72;100.00
47985;BME280;33753;52.912;-7.342;2023-01-15T11:48:44;98684.94;;;4.71;100.00
47985;BME280;33753;52.912;-7.342;2023-01-15T11:51:31;98682.91;;;4.73;100.00
47985;BME280;33753;52.912;-7.342;2023-01-15T11:54:06;98690.53;;;4.61;100.00
47985;BME280;33753;52.912;-7.342;2023-01-15T11:56:55;98691.34;;;4.61;100.00
47985;BME280;33753;52.912;-7.342;2023-01-15T11:59:23;98693.84;;;4.63;100.00
47985;BME280;33753;52.912;-7.342;2023-01-15T12:01:52;98681.38;;;4.55;100.00
47985;BME280;33753;52.912;-7.342;2023-01-15T12:07:14;98669.59;;;4.64;100.00
47985;BME280;33753;52.912;-7.342;2023-01-15T12:09:52;98663.13;;;4.59;100.00
47985;BME280;33753;52.912;-7.342;2023-01-15T12:12:28;98663.44;;;4.56;100.00
47985;BME280;33753;52.912;-7.342;2023-01-15T12:15:04;98665.91;;;4.65;100.00
47985;BME280;33753;52.912;-7.342;2023-01-15T12:20:23;98664.28;;;4.56;100.00
47985;BME280;33753;52.912;-7.342;2023-01-15T12:23:06;98665.47;;;4.54;100.00
47985;BME280;33753;52.912;-7.342;2023-01-15T12:25:48;98650.31;;;4.46;100.00
47985;BME280;33753;52.912;-7.342;2023-01-15T12:28:27;98643.28;;;4.45;100.00
47985;BME280;33753;52.912;-7.342;2023-01-15T12:31:04;98647.28;;;4.49;100.00
47985;BME280;33753;52.912;-7.342;2023-01-15T12:33:44;98646.38;;;4.57;100.00
47985;BME280;33753;52.912;-7.342;2023-01-15T12:36:23;98648.88;;;4.58;100.00
47985;BME280;33753;52.912;-7.342;2023-01-15T12:39:02;98640.06;;;4.49;100.00
47985;BME280;33753;52.912;-7.342;2023-01-15T12:41:37;98646.91;;;4.52;100.00
47985;BME280;33753;52.912;-7.342;2023-01-15T12:44:30;98638.22;;;4.50;100.00
47985;BME280;33753;52.912;-7.342;2023-01-15T12:47:23;98654.44;;;4.48;100.00
47985;BME280;33753;52.912;-7.342;2023-01-15T12:49:55;98641.75;;;4.74;100.00
47985;BME280;33753;52.912;-7.342;2023-01-15T12:52:28;98638.50;;;5.01;100.00
47985;BME280;33753;52.912;-7.342;2023-01-15T12:55:12;98633.56;;;5.28;100.00
47985;BME280;33753;52.912;-7.342;2023-01-15T12:57:49;98623.25;;;5.55;100.00
47985;BME280;33753;52.912;-7.342;2023-01-15T13:00:21;98613.25;;;5.79;100.00
47985;BME280;33753;52.912;-7.342;2023-01-15T13:03:04;98600.19;;;5.76;100.00
47985;BME280;33753;52.912;-7.342;2023-01-15T13:05:42;98594.44;;;6.09;100.00
47985;BME280;33753;52.912;-7.342;2023-01-15T13:08:17;98577.06;;;6.04;100.00
47985;BME280;33753;52.912;-7.342;2023-01-15T13:10:50;98572.53;;;6.27;100.00
47985;BME280;33753;52.912;-7.342;2023-01-15T13:13:28;98560.63;;;6.14;100.00
47985;BME280;33753;52.912;-7.342;2023-01-15T13:16:07;98553.94;;;6.25;100.00
47985;BME280;33753;52.912;-7.342;2023-01-15T13:18:44;98539.72;;;6.10;100.00
47985;BME280;33753;52.912;-7.342;2023-01-15T13:21:18;98540.38;;;6.12;100.00
47985;BME280;33753;52.912;-7.342;2023-01-15T13:23:59;98537.53;;;5.98;100.00